Capitol Logistics 1124


EHAM
Schiphol International Airport
Amsterdam, NL
UBBB
Heydar Aliyev International Airport
Baku, AZ

Activity Log

Date Flight Route Aircraft Duration
12/14/2019 CPX1124 Not Available B763 5h 00m

Route Details

Aircraft Information
Primary: Boeing 767-300BDSF
Backup: Not Available
Route Data
Distance: 1972nm
Sched. Duration: 4h 50m
Avg. Duration: 5h 00m (+51m)
Times Flown: 1
Recm'd Route: Not Available
Planned Altitude: 35,000ft
Origin Wx: EHAM 281225Z 19014KT 9999 FEW025 06/01 Q1013 NOSIG
Dest. Wx: UBBB 281230Z 19020G30KT CAVOK 12/07 Q1004 R88/CLRD// NOSIG
Notes:

Financial History
Total Freight: 94,868lbs
Average Load: 94,868lbs/flt
Fuel Used: 46,359lbs
Avg. Fuel Used: 46,359lbs/flt
Fuel Expense: $37,087
Avg. Fuel Expense: $37,087
Avg. Fuel Cost: $0.80/lbs
Total Gross Income: $344,371
Pilot Pay: $259
Total Expenses: $37,244
Total Revenue: $268,742
Average Revenue: $344,370.84